Time;durP1;ratioP1;P1;durP2;ratioP2;P2;SDS_P1;SDS_P2;PMS_P1;PMS_P2;Temp;Humidity;BMP_temperature;BMP_pressure;BME280_temperature;BME280_humidity;BME280_pressure;Samples;Min_cycle;Max_cycle;Signal;HPM_P1;HPM_P2
2022/11/20 05:01:16;;;;;;;29.63;13.77;;;-0.70;99.90;;;;;;6138229;23;20021;-78
2022/11/20 05:03:42;;;;;;;27.95;13.40;;;-0.70;99.90;;;;;;6186310;23;20342;-80
2022/11/20 05:06:10;;;;;;;26.65;13.68;;;-0.70;99.90;;;;;;6185968;23;20013;-78
2022/11/20 05:08:36;;;;;;;26.23;13.63;;;-0.70;99.90;;;;;;6187255;23;20024;-80
2022/11/20 05:11:09;;;;;;;24.60;12.50;;;-0.70;99.90;;;;;;6185284;23;20017;-81
2022/11/20 05:13:35;;;;;;;25.73;12.45;;;-0.70;99.90;;;;;;6185476;23;20024;-79
2022/11/20 05:16:03;;;;;;;23.30;12.20;;;-0.70;99.90;;;;;;6160539;23;20013;-78
2022/11/20 05:18:29;;;;;;;25.77;12.57;;;-0.70;99.90;;;;;;6186958;23;20036;-81
2022/11/20 05:20:56;;;;;;;25.20;12.13;;;-0.70;99.90;;;;;;6160741;23;20009;-80
2022/11/20 05:23:22;;;;;;;22.48;12.07;;;-0.80;99.90;;;;;;6186766;23;20014;-78
2022/11/20 05:25:47;;;;;;;26.17;13.20;;;-0.80;99.90;;;;;;6185324;23;20105;-78
2022/11/20 05:28:13;;;;;;;28.00;13.15;;;-0.80;99.90;;;;;;6185464;23;20339;-81
2022/11/20 05:30:39;;;;;;;24.45;12.40;;;-0.80;99.90;;;;;;6186085;23;20013;-79
2022/11/20 05:33:05;;;;;;;22.40;12.13;;;-0.80;99.90;;;;;;6185425;23;20016;-79
2022/11/20 05:35:30;;;;;;;23.60;12.38;;;-0.90;99.90;;;;;;6187005;23;20093;-80
2022/11/20 05:37:56;;;;;;;22.35;11.80;;;-0.80;99.90;;;;;;6185179;23;20060;-77
2022/11/20 05:40:21;;;;;;;23.77;12.13;;;-0.80;99.90;;;;;;6185233;23;20059;-78
2022/11/20 05:42:47;;;;;;;24.90;12.82;;;-0.90;99.90;;;;;;6185561;23;20075;-81
2022/11/20 05:45:13;;;;;;;23.58;12.40;;;-0.90;99.90;;;;;;6185237;23;20013;-78
2022/11/20 05:47:38;;;;;;;24.27;12.13;;;-0.90;99.90;;;;;;6185681;23;20012;-78
2022/11/20 05:50:04;;;;;;;23.60;11.43;;;-0.90;99.90;;;;;;6185088;23;20012;-79
2022/11/20 05:52:30;;;;;;;25.38;11.80;;;-0.90;99.90;;;;;;6185248;23;20346;-79
2022/11/20 05:54:56;;;;;;;19.33;10.32;;;-0.90;99.90;;;;;;6185421;23;20056;-80
2022/11/20 05:57:22;;;;;;;21.65;11.35;;;-0.90;99.90;;;;;;6185239;23;20024;-79
2022/11/20 05:59:47;;;;;;;21.35;10.65;;;-0.90;99.90;;;;;;6186318;23;20088;-79
2022/11/20 06:02:13;;;;;;;24.30;12.10;;;-0.90;99.90;;;;;;6189453;23;20024;-81
2022/11/20 06:04:39;;;;;;;22.15;11.30;;;-0.80;99.90;;;;;;6188285;23;20339;-79
2022/11/20 06:07:05;;;;;;;20.95;10.30;;;-0.80;99.90;;;;;;6188538;23;20016;-77
2022/11/20 06:09:31;;;;;;;21.13;10.70;;;-0.90;99.90;;;;;;6189023;23;20331;-77
2022/11/20 06:11:57;;;;;;;20.60;10.20;;;-0.90;99.90;;;;;;6188537;23;20063;-80
2022/11/20 06:14:22;;;;;;;22.75;10.50;;;-0.80;99.90;;;;;;6185507;23;20009;-80
2022/11/20 06:16:48;;;;;;;22.00;10.23;;;-0.80;99.90;;;;;;6184882;23;20017;-79
2022/11/20 06:19:14;;;;;;;18.98;9.95;;;-0.80;99.90;;;;;;6186909;23;20084;-81
2022/11/20 06:21:40;;;;;;;21.05;10.70;;;-0.80;99.90;;;;;;6186604;23;20359;-79
2022/11/20 06:24:08;;;;;;;22.23;11.18;;;-0.70;99.90;;;;;;6160007;23;20110;-80
2022/11/20 06:26:33;;;;;;;21.42;10.95;;;-0.70;99.90;;;;;;6186983;23;20450;-80
2022/11/20 06:28:59;;;;;;;20.65;10.90;;;-0.70;99.90;;;;;;6186423;23;20032;-80
2022/11/20 06:31:26;;;;;;;23.75;11.23;;;-0.70;99.90;;;;;;6184642;23;20351;-80
2022/11/20 06:33:52;;;;;;;22.27;11.18;;;-0.70;99.90;;;;;;6184741;23;20020;-79
2022/11/20 06:36:21;;;;;;;20.88;10.57;;;-0.70;99.90;;;;;;6184688;23;20063;-79
2022/11/20 06:38:46;;;;;;;22.30;10.98;;;-0.60;99.90;;;;;;6184586;23;20027;-80
2022/11/20 06:41:18;;;;;;;22.42;10.82;;;-0.60;99.90;;;;;;6184209;23;20017;-77
2022/11/20 06:43:44;;;;;;;20.58;11.00;;;-0.60;99.90;;;;;;6184479;23;20043;-80
2022/11/20 06:46:12;;;;;;;22.02;11.00;;;-0.60;99.90;;;;;;6185250;23;20040;-79
2022/11/20 06:48:38;;;;;;;22.30;10.90;;;-0.60;99.90;;;;;;6184480;23;20063;-78
2022/11/20 06:51:06;;;;;;;24.42;11.75;;;-0.60;99.90;;;;;;6184653;23;20011;-82
2022/11/20 06:53:32;;;;;;;24.60;11.52;;;-0.60;99.90;;;;;;6184522;23;20092;-79
2022/11/20 06:55:57;;;;;;;22.63;10.88;;;-0.60;99.90;;;;;;6184614;23;20017;-79
2022/11/20 06:58:25;;;;;;;21.98;11.15;;;-0.60;99.90;;;;;;6184645;23;20017;-78
2022/11/20 07:00:51;;;;;;;22.20;11.15;;;-0.50;99.90;;;;;;6184269;23;20055;-78
2022/11/20 07:03:17;;;;;;;23.75;12.32;;;-0.50;99.90;;;;;;6184331;23;20350;-79
2022/11/20 07:05:43;;;;;;;18.63;10.43;;;-0.50;99.90;;;;;;6184810;23;20092;-80
2022/11/20 07:08:09;;;;;;;25.83;11.60;;;-0.50;99.90;;;;;;6184453;23;20330;-80
2022/11/20 07:10:35;;;;;;;21.33;11.45;;;-0.50;99.90;;;;;;6183851;23;20045;-78
2022/11/20 07:13:01;;;;;;;24.40;11.68;;;-0.50;99.90;;;;;;6184607;23;20343;-80
2022/11/20 07:15:27;;;;;;;23.10;11.18;;;-0.50;99.90;;;;;;6184246;23;20397;-79
2022/11/20 07:17:52;;;;;;;20.92;10.95;;;-0.50;99.90;;;;;;6184129;23;20021;-79
2022/11/20 07:20:18;;;;;;;23.30;12.07;;;-0.50;99.90;;;;;;6183991;23;20017;-81
2022/11/20 07:22:44;;;;;;;22.02;10.75;;;-0.50;99.90;;;;;;6159281;23;20401;-79
2022/11/20 07:25:10;;;;;;;20.70;10.88;;;-0.50;99.90;;;;;;6160195;23;20071;-79
2022/11/20 07:27:36;;;;;;;21.88;11.38;;;-0.50;99.90;;;;;;6184229;23;20024;-79
2022/11/20 07:30:03;;;;;;;22.05;11.70;;;-0.50;99.90;;;;;;6185789;23;20067;-80
2022/11/20 07:32:29;;;;;;;21.50;10.93;;;-0.50;99.90;;;;;;6159065;23;20461;-79
2022/11/20 07:34:54;;;;;;;23.40;11.48;;;-0.50;99.90;;;;;;6185522;23;20005;-79
2022/11/20 07:37:20;;;;;;;24.75;12.43;;;-0.50;99.90;;;;;;6184211;23;20395;-79
2022/11/20 07:39:46;;;;;;;24.95;12.05;;;-0.50;99.90;;;;;;6185851;23;20013;-80
2022/11/20 07:42:12;;;;;;;24.00;12.93;;;-0.50;99.90;;;;;;6159277;23;20084;-79
2022/11/20 07:44:38;;;;;;;24.23;13.02;;;-0.50;99.90;;;;;;6184497;23;20328;-77
2022/11/20 07:47:03;;;;;;;27.98;13.52;;;-0.50;99.90;;;;;;6184106;23;20083;-81
2022/11/20 07:49:29;;;;;;;26.25;13.05;;;-0.50;99.90;;;;;;6184180;23;20364;-78
2022/11/20 07:51:55;;;;;;;27.15;13.27;;;-0.50;99.90;;;;;;6183891;23;20072;-80
2022/11/20 07:54:21;;;;;;;25.75;12.65;;;-0.50;99.90;;;;;;6183792;23;20430;-80
2022/11/20 07:56:47;;;;;;;26.55;13.98;;;-0.50;99.90;;;;;;6183996;23;20079;-78
2022/11/20 07:59:13;;;;;;;24.58;12.77;;;-0.50;99.90;;;;;;6185412;23;20438;-81
2022/11/20 08:01:40;;;;;;;27.42;14.60;;;-0.40;99.90;;;;;;6183772;23;20399;-79
2022/11/20 08:04:06;;;;;;;27.45;13.90;;;-0.50;99.90;;;;;;6184032;23;20021;-78
2022/11/20 08:06:32;;;;;;;24.17;13.10;;;-0.50;99.90;;;;;;6183880;23;20013;-80
2022/11/20 08:08:58;;;;;;;24.10;11.95;;;-0.50;99.90;;;;;;6184467;23;20016;-81
2022/11/20 08:14:13;;;;;;;24.05;12.52;;;-0.50;99.90;;;;;;6184030;23;20024;-79
2022/11/20 08:16:40;;;;;;;27.27;13.77;;;-0.50;99.90;;;;;;6185648;23;20013;-78
2022/11/20 08:19:06;;;;;;;25.73;13.02;;;-0.60;99.90;;;;;;6183935;23;20017;-81
2022/11/20 08:21:32;;;;;;;24.85;12.63;;;-0.60;99.90;;;;;;6183738;23;20075;-81
2022/11/20 08:23:58;;;;;;;26.08;12.85;;;-0.60;99.90;;;;;;6183739;23;20021;-80
2022/11/20 08:26:25;;;;;;;25.88;12.63;;;-0.60;99.90;;;;;;6183830;23;20094;-78
2022/11/20 08:28:54;;;;;;;25.73;13.20;;;-0.50;99.90;;;;;;6185794;23;20375;-79
2022/11/20 08:31:22;;;;;;;28.77;13.77;;;-0.50;99.90;;;;;;6159274;23;20024;-79
2022/11/20 08:33:47;;;;;;;25.30;13.27;;;-0.50;99.90;;;;;;6185519;23;20013;-80
2022/11/20 08:36:13;;;;;;;27.52;12.52;;;-0.40;99.90;;;;;;6185982;23;20009;-80
2022/11/20 08:38:38;;;;;;;24.48;13.00;;;-0.30;99.90;;;;;;6183690;23;20014;-81
2022/11/20 08:43:54;;;;;;;24.73;12.70;;;-0.10;99.90;;;;;;6183878;23;20312;-80
2022/11/20 08:46:20;;;;;;;21.98;12.07;;;0.10;99.90;;;;;;6159175;23;20015;-77
2022/11/20 08:48:46;;;;;;;21.45;11.23;;;0.30;99.90;;;;;;6159009;23;20048;-80
2022/11/20 08:51:12;;;;;;;22.80;11.60;;;0.50;99.90;;;;;;6185950;23;20005;-77
2022/11/20 08:53:39;;;;;;;24.40;12.07;;;0.70;99.90;;;;;;6183643;23;20501;-80
2022/11/20 08:56:05;;;;;;;23.38;11.77;;;0.90;99.90;;;;;;6185230;23;20080;-78
2022/11/20 08:58:31;;;;;;;22.90;12.13;;;0.80;99.90;;;;;;6183583;23;20013;-78
2022/11/20 09:00:57;;;;;;;22.10;11.52;;;0.70;99.90;;;;;;6183496;23;20009;-77
2022/11/20 09:03:23;;;;;;;26.08;11.82;;;0.60;99.90;;;;;;6183551;23;20013;-78
2022/11/20 09:05:48;;;;;;;24.10;12.35;;;0.50;99.90;;;;;;6186045;23;20012;-78
2022/11/20 09:08:14;;;;;;;20.75;11.50;;;0.50;99.90;;;;;;6186981;23;20116;-78
2022/11/20 09:10:40;;;;;;;20.88;11.27;;;0.40;99.90;;;;;;6187121;23;20331;-79
2022/11/20 09:13:05;;;;;;;24.45;11.43;;;0.40;99.90;;;;;;6185565;23;20017;-78
2022/11/20 09:15:32;;;;;;;23.77;11.48;;;0.40;99.90;;;;;;6185265;23;20479;-79
2022/11/20 09:18:00;;;;;;;21.25;11.32;;;0.40;99.90;;;;;;6185289;23;20350;-78
2022/11/20 09:20:28;;;;;;;21.30;11.25;;;0.40;99.90;;;;;;6187330;23;20343;-77
2022/11/20 09:22:54;;;;;;;22.02;12.10;;;0.50;99.90;;;;;;6185069;23;20017;-77
2022/11/20 09:25:20;;;;;;;21.55;10.98;;;0.60;99.90;;;;;;6185015;23;20090;-78
2022/11/20 09:27:46;;;;;;;27.73;11.43;;;0.80;99.90;;;;;;6186702;23;20427;-77
2022/11/20 09:30:16;;;;;;;20.73;10.85;;;0.90;99.90;;;;;;6185036;23;20443;-78
2022/11/20 09:32:42;;;;;;;24.80;11.32;;;1.00;99.90;;;;;;6186181;23;20063;-77
2022/11/20 09:35:08;;;;;;;20.80;10.80;;;1.10;99.90;;;;;;6185377;23;20439;-77
2022/11/20 09:37:34;;;;;;;19.08;10.55;;;1.20;99.90;;;;;;6160460;23;20016;-78
2022/11/20 09:40:00;;;;;;;21.00;11.43;;;1.30;99.90;;;;;;6185294;23;20020;-78
2022/11/20 09:42:34;;;;;;;20.30;10.57;;;1.40;99.90;;;;;;6185452;23;20087;-80
2022/11/20 09:45:21;;;;;;;19.40;11.03;;;1.40;99.90;;;;;;6185794;23;20501;-80
2022/11/20 09:48:24;;;;;;;20.13;11.55;;;1.50;99.90;;;;;;6185612;23;20013;-78
2022/11/20 09:51:21;;;;;;;19.73;10.73;;;1.60;99.90;;;;;;6185324;23;20012;-79
2022/11/20 09:54:14;;;;;;;19.85;11.15;;;1.70;99.90;;;;;;6059693;23;20758;-77
2022/11/20 09:56:43;;;;;;;19.92;10.60;;;1.80;99.90;;;;;;6186220;23;20288;-78
2022/11/20 09:59:23;;;;;;;19.23;10.82;;;2.00;99.90;;;;;;6186498;23;20017;-77
2022/11/20 10:01:49;;;;;;;20.10;11.57;;;2.00;99.90;;;;;;6184952;23;20431;-79
2022/11/20 10:04:20;;;;;;;17.73;10.25;;;2.10;99.90;;;;;;6185076;23;20443;-77
2022/11/20 10:07:12;;;;;;;19.70;11.65;;;2.30;99.90;;;;;;6186645;23;20020;-80
2022/11/20 10:09:43;;;;;;;18.58;10.35;;;2.40;99.90;;;;;;6185764;23;20438;-82
2022/11/20 10:12:15;;;;;;;20.58;11.07;;;2.60;99.90;;;;;;6185189;23;20040;-79
2022/11/20 10:15:02;;;;;;;16.58;9.85;;;2.70;99.90;;;;;;6185121;23;20016;-80
2022/11/20 10:18:03;;;;;;;18.83;9.35;;;2.90;99.90;;;;;;6185161;23;20013;-80
2022/11/20 10:21:10;;;;;;;16.88;9.85;;;3.10;99.90;;;;;;6184737;23;20075;-77
2022/11/20 10:23:45;;;;;;;;;;;3.30;99.90;;;;;;6167781;23;20032;-78
2022/11/20 10:26:22;;;;;;;15.67;9.13;;;3.40;99.90;;;;;;6185292;23;20327;-80
2022/11/20 10:29:12;;;;;;;14.73;8.50;;;3.50;99.90;;;;;;6186628;23;20551;-77
2022/11/20 10:31:45;;;;;;;14.05;8.18;;;3.60;99.90;;;;;;6186547;23;20013;-77
2022/11/20 10:34:26;;;;;;;15.07;8.57;;;3.70;99.90;;;;;;6185034;23;20063;-80
2022/11/20 10:37:04;;;;;;;14.30;8.23;;;3.90;99.90;;;;;;6185017;23;20017;-80
2022/11/20 10:39:37;;;;;;;16.67;8.63;;;4.00;99.90;;;;;;6185210;23;20382;-77
2022/11/20 10:42:10;;;;;;;15.18;8.23;;;4.10;99.90;;;;;;6185868;23;20020;-80
2022/11/20 10:47:27;;;;;;;15.23;8.40;;;4.20;99.90;;;;;;6191363;23;20024;-81
2022/11/20 10:49:55;;;;;;;13.90;8.38;;;4.10;99.90;;;;;;6189897;23;20501;-78
2022/11/20 10:52:48;;;;;;;18.00;10.23;;;4.10;99.90;;;;;;6194416;23;20124;-81
2022/11/20 10:55:28;;;;;;;13.88;8.65;;;3.90;99.90;;;;;;6185226;23;20044;-80
2022/11/20 10:58:12;;;;;;;13.98;8.43;;;3.70;99.90;;;;;;6187213;23;20013;-77
2022/11/20 11:00:38;;;;;;;13.98;7.93;;;3.50;99.90;;;;;;6184654;23;20396;-77
2022/11/20 11:03:23;;;;;;;14.38;7.97;;;3.40;99.90;;;;;;6184580;23;20013;-80
2022/11/20 11:06:00;;;;;;;12.88;7.72;;;3.30;99.90;;;;;;6186869;23;20009;-78
2022/11/20 11:08:32;;;;;;;13.27;8.48;;;3.30;99.90;;;;;;6160050;23;20017;-80
2022/11/20 11:11:02;;;;;;;13.15;7.90;;;3.30;99.90;;;;;;6186738;23;20019;-76
2022/11/20 11:13:30;;;;;;;13.32;8.27;;;3.20;99.90;;;;;;6186644;23;20013;-78
2022/11/20 11:15:56;;;;;;;15.45;8.82;;;3.10;99.90;;;;;;6186784;23;20009;-79
2022/11/20 11:18:25;;;;;;;15.48;8.68;;;3.10;99.90;;;;;;6187481;23;20097;-80
2022/11/20 11:20:52;;;;;;;13.38;8.27;;;3.00;99.90;;;;;;6185329;23;20017;-77
2022/11/20 11:23:37;;;;;;;15.85;8.23;;;3.00;99.90;;;;;;6210700;23;20447;-78
2022/11/20 11:26:06;;;;;;;14.02;8.50;;;2.90;99.90;;;;;;6186893;23;20032;-79
2022/11/20 11:28:32;;;;;;;13.55;8.32;;;2.90;99.90;;;;;;6185303;23;20017;-78
2022/11/20 11:30:58;;;;;;;16.15;9.07;;;2.90;99.90;;;;;;6185400;23;20016;-81
2022/11/20 11:33:26;;;;;;;13.68;8.05;;;3.00;99.90;;;;;;6185140;23;20017;-79
2022/11/20 11:36:01;;;;;;;14.95;8.30;;;3.00;99.90;;;;;;6210271;23;20024;-79
2022/11/20 11:38:35;;;;;;;15.60;8.70;;;3.00;99.90;;;;;;6185360;23;20031;-79
2022/11/20 11:41:02;;;;;;;15.10;8.23;;;3.00;99.90;;;;;;6186594;23;20071;-80
2022/11/20 11:46:33;;;;;;;13.93;7.57;;;3.10;99.90;;;;;;6187514;23;20103;-80
2022/11/20 11:49:16;;;;;;;11.20;7.10;;;3.50;99.90;;;;;;6185343;23;20048;-77
2022/11/20 11:52:10;;;;;;;11.50;6.97;;;3.90;99.90;;;;;;6186731;23;20019;-76
2022/11/20 11:54:43;;;;;;;15.10;7.65;;;4.10;99.90;;;;;;6210383;23;20021;-79
2022/11/20 11:57:42;;;;;;;13.85;7.78;;;4.20;99.90;;;;;;6186037;23;20013;-77
2022/11/20 12:00:19;;;;;;;11.43;7.03;;;4.20;99.90;;;;;;6184596;23;20013;-78
2022/11/20 12:02:44;;;;;;;14.00;7.78;;;4.10;99.90;;;;;;6184093;23;20071;-80
2022/11/20 12:05:32;;;;;;;15.23;6.82;;;4.00;99.90;;;;;;6184159;23;20060;-79
2022/11/20 12:08:23;;;;;;;15.93;7.70;;;3.80;99.90;;;;;;6185409;23;20439;-82
2022/11/20 12:10:57;;;;;;;13.48;7.47;;;3.60;99.90;;;;;;6184655;23;20013;-78
2022/11/20 12:13:41;;;;;;;13.95;6.93;;;3.50;99.90;;;;;;6186310;23;20013;-76
2022/11/20 12:16:14;;;;;;;11.70;7.28;;;3.40;99.90;;;;;;6184326;23;20094;-80
2022/11/20 12:18:41;;;;;;;11.80;6.28;;;3.40;99.90;;;;;;6186337;23;20009;-77
2022/11/20 12:21:35;;;;;;;13.73;6.93;;;3.30;99.90;;;;;;6184122;23;20045;-79
2022/11/20 12:24:23;;;;;;;29.10;7.68;;;3.30;99.90;;;;;;6159706;23;20017;-80
2022/11/20 12:27:22;;;;;;;11.45;6.55;;;3.30;99.90;;;;;;6184639;23;20015;-78
2022/11/20 12:30:13;;;;;;;11.43;6.85;;;3.30;99.90;;;;;;6184868;23;20013;-80
2022/11/20 12:32:50;;;;;;;13.32;6.70;;;3.30;99.90;;;;;;6159537;23;20017;-79
2022/11/20 12:35:37;;;;;;;10.85;6.40;;;3.20;99.90;;;;;;6185342;23;20092;-83
2022/11/20 12:38:15;;;;;;;13.65;7.63;;;3.20;99.90;;;;;;6184761;23;20053;-76
2022/11/20 12:47:41;;;;;;;11.73;6.57;;;3.10;99.90;;;;;;6073361;23;20015;-78
2022/11/20 12:50:31;;;;;;;12.45;7.07;;;3.10;99.90;;;;;;6186923;23;20009;-79
2022/11/20 12:53:03;;;;;;;12.30;6.82;;;3.10;99.90;;;;;;6186062;23;20017;-79
2022/11/20 12:55:50;;;;;;;12.85;6.85;;;3.10;99.90;;;;;;6185451;23;20092;-78
2022/11/20 12:58:35;;;;;;;13.20;6.88;;;3.10;99.90;;;;;;6186300;23;20398;-76
2022/11/20 13:01:42;;;;;;;12.30;7.15;;;3.10;99.90;;;;;;6160675;23;20048;-80
2022/11/20 13:04:36;;;;;;;11.80;7.18;;;3.10;99.90;;;;;;6185714;23;20013;-81
2022/11/20 13:07:09;;;;;;;12.88;7.57;;;3.00;99.90;;;;;;6197179;23;20013;-80
2022/11/20 13:09:43;;;;;;;11.43;6.90;;;3.10;99.90;;;;;;6186255;23;20427;-77
2022/11/20 13:12:22;;;;;;;13.20;7.85;;;3.00;99.90;;;;;;6185974;23;20020;-78
2022/11/20 13:15:18;;;;;;;14.82;7.53;;;3.10;99.90;;;;;;6187370;23;20011;-77
2022/11/20 13:18:02;;;;;;;13.60;7.43;;;3.10;99.90;;;;;;6184557;23;20073;-78
2022/11/20 13:20:30;;;;;;;14.43;7.78;;;3.10;99.90;;;;;;6185878;23;20139;-80
2022/11/20 13:22:57;;;;;;;12.55;7.47;;;3.10;99.90;;;;;;6186820;23;20048;-83
2022/11/20 13:25:27;;;;;;;12.70;7.53;;;3.10;99.90;;;;;;6211363;23;20416;-83
2022/11/20 13:27:53;;;;;;;15.05;8.00;;;3.10;99.90;;;;;;6161386;23;20435;-79
2022/11/20 13:30:24;;;;;;;12.30;7.40;;;3.10;99.90;;;;;;6187739;23;20017;-82
2022/11/20 13:32:54;;;;;;;15.55;8.55;;;3.10;99.90;;;;;;6211537;23;20017;-81
2022/11/20 13:35:37;;;;;;;13.30;7.88;;;3.00;99.90;;;;;;6185685;23;20017;-78
2022/11/20 13:38:05;;;;;;;16.88;8.60;;;3.00;99.90;;;;;;6185517;23;20021;-80
2022/11/20 13:40:31;;;;;;;13.95;8.18;;;3.00;99.90;;;;;;6185332;23;20028;-76
2022/11/20 13:43:08;;;;;;;14.77;8.73;;;3.00;99.90;;;;;;6185208;23;20021;-78
2022/11/20 13:45:34;;;;;;;14.85;8.00;;;2.90;99.90;;;;;;6185706;23;20013;-79
2022/11/20 13:48:20;;;;;;;16.00;8.85;;;2.90;99.90;;;;;;6187002;23;20016;-79
2022/11/20 13:51:15;;;;;;;15.05;8.65;;;2.90;99.90;;;;;;6185084;23;20530;-79
2022/11/20 13:54:06;;;;;;;15.60;8.30;;;2.80;99.90;;;;;;6209736;23;20021;-77
2022/11/20 13:56:38;;;;;;;13.95;7.80;;;2.80;99.90;;;;;;6185282;23;20496;-78
2022/11/20 13:59:27;;;;;;;14.90;8.75;;;2.80;99.90;;;;;;6185570;23;20075;-78
2022/11/20 14:01:54;;;;;;;16.70;8.75;;;2.70;99.90;;;;;;6184673;23;20013;-78
2022/11/20 14:04:28;;;;;;;13.20;7.93;;;2.70;99.90;;;;;;6185064;23;20021;-77
2022/11/20 14:06:54;;;;;;;16.10;9.07;;;2.70;99.90;;;;;;6210521;23;20036;-77
2022/11/20 14:09:29;;;;;;;16.85;9.40;;;2.70;99.90;;;;;;6185314;23;20013;-77
2022/11/20 14:11:55;;;;;;;15.73;8.82;;;2.70;99.90;;;;;;6186315;23;20005;-80
2022/11/20 14:14:26;;;;;;;15.60;8.43;;;2.60;99.90;;;;;;6184458;23;20092;-78
2022/11/20 14:17:04;;;;;;;15.07;8.95;;;2.60;99.90;;;;;;6183806;23;20021;-79
2022/11/20 14:19:30;;;;;;;13.15;8.10;;;2.60;99.90;;;;;;6183459;23;20009;-80
2022/11/20 14:22:22;;;;;;;16.23;8.60;;;2.60;99.90;;;;;;6184476;23;20071;-79
2022/11/20 14:25:00;;;;;;;15.20;8.65;;;2.60;99.90;;;;;;6185616;23;20056;-78
2022/11/20 14:27:26;;;;;;;17.10;9.73;;;2.60;99.90;;;;;;6186891;23;20024;-80
2022/11/20 14:29:52;;;;;;;16.05;9.60;;;2.60;99.90;;;;;;6184829;23;20009;-77
2022/11/20 14:32:20;;;;;;;18.90;9.50;;;2.50;99.90;;;;;;6184919;23;20096;-79
2022/11/20 14:34:49;;;;;;;17.38;9.77;;;2.50;99.90;;;;;;6186470;23;20013;-79
2022/11/20 14:37:25;;;;;;;18.25;9.75;;;2.50;99.90;;;;;;6184996;23;20316;-77
2022/11/20 14:39:54;;;;;;;17.50;10.13;;;2.50;99.90;;;;;;6184914;23;20391;-77
2022/11/20 14:42:25;;;;;;;19.02;10.40;;;2.50;99.90;;;;;;6184660;23;20339;-78
2022/11/20 14:44:55;;;;;;;19.52;10.70;;;2.50;99.90;;;;;;6185062;23;20017;-79
2022/11/20 14:47:24;;;;;;;17.77;10.75;;;2.40;99.90;;;;;;6185071;23;20059;-81
2022/11/20 14:49:52;;;;;;;17.73;9.90;;;2.40;99.90;;;;;;6185066;23;20013;-79
2022/11/20 14:52:20;;;;;;;19.77;10.73;;;2.40;99.90;;;;;;6184662;23;20016;-81
2022/11/20 14:54:51;;;;;;;17.23;10.13;;;2.40;99.90;;;;;;6160368;23;20084;-81
2022/11/20 14:57:23;;;;;;;18.92;10.88;;;2.40;99.90;;;;;;6186373;23;20009;-76
2022/11/20 14:59:48;;;;;;;19.38;10.52;;;2.40;99.90;;;;;;6186906;23;20080;-78
2022/11/20 15:02:14;;;;;;;18.85;10.60;;;2.40;99.90;;;;;;6186205;23;20453;-78
2022/11/20 15:04:56;;;;;;;18.42;10.77;;;2.40;99.90;;;;;;6185083;23;20132;-79
2022/11/20 15:07:30;;;;;;;21.58;11.30;;;2.30;99.90;;;;;;6185352;23;20048;-80
2022/11/20 15:10:04;;;;;;;19.83;10.55;;;2.40;99.90;;;;;;6187146;23;20093;-78
2022/11/20 15:12:37;;;;;;;19.67;11.60;;;2.30;99.90;;;;;;6185602;23;20017;-78
2022/11/20 15:15:04;;;;;;;22.83;11.32;;;2.30;99.90;;;;;;6185745;23;20504;-79
2022/11/20 15:17:31;;;;;;;20.88;10.80;;;2.30;99.90;;;;;;6185732;23;20399;-79
2022/11/20 15:19:57;;;;;;;17.40;10.15;;;2.30;99.90;;;;;;6185764;23;20037;-78
2022/11/20 15:22:22;;;;;;;19.10;10.85;;;2.30;99.90;;;;;;6185226;23;20059;-79
2022/11/20 15:24:48;;;;;;;20.65;10.85;;;2.30;99.90;;;;;;6187375;23;20013;-78
2022/11/20 15:27:14;;;;;;;18.80;10.88;;;2.30;99.90;;;;;;6185508;23;20013;-78
2022/11/20 15:29:41;;;;;;;21.10;11.75;;;2.30;99.90;;;;;;6185420;23;20013;-77
2022/11/20 15:32:08;;;;;;;19.38;10.60;;;2.30;99.90;;;;;;6185429;23;20005;-81
2022/11/20 15:34:33;;;;;;;20.30;11.52;;;2.30;99.90;;;;;;6185315;23;20017;-79
2022/11/20 15:36:59;;;;;;;19.60;10.60;;;2.30;99.90;;;;;;6185187;23;20343;-81
2022/11/20 15:39:25;;;;;;;19.42;10.93;;;2.30;99.90;;;;;;6186954;23;20009;-82
2022/11/20 15:41:54;;;;;;;19.52;10.77;;;2.40;99.90;;;;;;6188864;23;20009;-79
2022/11/20 15:44:20;;;;;;;18.10;10.52;;;2.40;99.90;;;;;;6203937;23;20013;-75
2022/11/20 15:46:46;;;;;;;18.88;10.70;;;2.30;99.90;;;;;;6196375;23;20024;-79
2022/11/20 15:49:18;;;;;;;22.55;12.38;;;2.30;99.90;;;;;;6192797;23;20016;-81
2022/11/20 15:51:46;;;;;;;18.77;10.98;;;2.40;99.90;;;;;;6187065;23;20017;-81
2022/11/20 15:54:19;;;;;;;19.13;11.40;;;2.30;99.90;;;;;;6186039;23;20495;-81
2022/11/20 15:56:46;;;;;;;22.40;12.13;;;2.30;99.90;;;;;;6186218;23;20001;-80
2022/11/20 15:59:14;;;;;;;19.52;11.27;;;2.40;99.90;;;;;;6185926;23;20067;-83
2022/11/20 16:01:40;;;;;;;20.05;11.93;;;2.40;99.90;;;;;;6185090;23;20068;-81
2022/11/20 16:04:14;;;;;;;22.42;12.30;;;2.40;99.90;;;;;;6160567;23;20020;-79
2022/11/20 16:06:40;;;;;;;19.42;11.43;;;2.40;99.90;;;;;;6184643;23;20443;-80
2022/11/20 16:09:06;;;;;;;19.15;11.30;;;2.30;99.90;;;;;;6184154;23;20017;-81
2022/11/20 16:11:32;;;;;;;20.33;11.77;;;2.40;99.90;;;;;;6184549;23;20060;-82
2022/11/20 16:16:43;;;;;;;21.50;11.45;;;2.30;99.90;;;;;;6186634;23;20032;-80
2022/11/20 16:19:15;;;;;;;21.08;11.75;;;2.30;99.90;;;;;;6186489;23;20067;-79
2022/11/20 16:21:41;;;;;;;19.80;11.70;;;2.40;99.90;;;;;;6188868;23;20088;-80
2022/11/20 16:24:10;;;;;;;20.63;12.10;;;2.40;99.90;;;;;;6190351;23;20016;-77
2022/11/20 16:26:36;;;;;;;21.63;12.20;;;2.40;99.90;;;;;;6188572;23;20024;-78
2022/11/20 16:29:04;;;;;;;20.85;11.75;;;2.40;99.90;;;;;;6187354;23;20407;-78
2022/11/20 16:31:30;;;;;;;22.63;12.40;;;2.40;99.90;;;;;;6187073;23;20013;-79
2022/11/20 16:34:02;;;;;;;21.95;12.75;;;2.40;99.90;;;;;;6186996;23;20024;-79
2022/11/20 16:36:29;;;;;;;21.80;12.40;;;2.40;99.90;;;;;;6189854;23;20016;-82
2022/11/20 16:38:57;;;;;;;20.75;12.60;;;2.40;99.90;;;;;;6187804;23;20009;-82
2022/11/20 16:41:25;;;;;;;21.05;11.82;;;2.40;99.90;;;;;;6186380;23;20049;-79
2022/11/20 16:43:57;;;;;;;21.77;12.63;;;2.40;99.90;;;;;;6186282;23;20020;-75
2022/11/20 16:46:23;;;;;;;19.35;11.52;;;2.40;99.90;;;;;;6187205;23;20455;-80
2022/11/20 16:48:56;;;;;;;21.05;12.18;;;2.40;99.90;;;;;;6188040;23;20020;-81
2022/11/20 16:51:23;;;;;;;18.90;11.60;;;2.40;99.90;;;;;;6187357;23;20013;-80
2022/11/20 16:53:49;;;;;;;22.88;12.55;;;2.40;99.90;;;;;;6187293;23;20151;-79
2022/11/20 16:56:18;;;;;;;23.92;12.77;;;2.40;99.90;;;;;;6188764;23;20019;-79
2022/11/20 16:58:45;;;;;;;21.20;12.20;;;2.40;99.90;;;;;;6187300;23;20068;-80
2022/11/20 17:01:13;;;;;;;20.67;12.48;;;2.40;99.90;;;;;;6186968;23;20017;-78
2022/11/20 17:03:40;;;;;;;19.27;11.52;;;2.40;99.90;;;;;;6187241;23;20013;-81
2022/11/20 17:06:14;;;;;;;20.63;12.00;;;2.30;99.90;;;;;;6187693;23;20053;-80
2022/11/20 17:08:40;;;;;;;20.15;12.02;;;2.40;99.90;;;;;;6187164;23;20458;-80
2022/11/20 17:11:11;;;;;;;22.42;12.77;;;2.30;99.90;;;;;;6189060;23;20013;-82
2022/11/20 17:13:37;;;;;;;22.38;12.55;;;2.30;99.90;;;;;;6187338;23;20017;-83
2022/11/20 17:16:06;;;;;;;25.63;12.25;;;2.30;99.90;;;;;;6186501;23;20017;-77
2022/11/20 17:18:32;;;;;;;22.55;12.40;;;2.30;99.90;;;;;;6186248;23;20017;-81
2022/11/20 17:20:59;;;;;;;24.83;13.70;;;2.30;99.90;;;;;;6186681;23;20016;-80
2022/11/20 17:23:28;;;;;;;22.83;12.60;;;2.20;99.90;;;;;;6186736;23;20017;-80
2022/11/20 17:26:02;;;;;;;23.77;12.88;;;2.20;99.90;;;;;;6186369;23;20016;-81
2022/11/20 17:28:28;;;;;;;22.60;13.25;;;2.20;99.90;;;;;;6188625;23;20028;-82
2022/11/20 17:30:57;;;;;;;25.02;13.73;;;2.20;99.90;;;;;;6187228;23;20438;-83
2022/11/20 17:33:23;;;;;;;27.80;13.70;;;2.20;99.90;;;;;;6187101;23;20072;-82
2022/11/20 17:35:49;;;;;;;27.25;15.07;;;2.10;99.90;;;;;;6187297;23;20025;-80
2022/11/20 17:38:14;;;;;;;26.13;14.15;;;2.10;99.90;;;;;;6187485;23;20402;-80
2022/11/20 17:40:40;;;;;;;27.23;14.63;;;2.10;99.90;;;;;;6186616;23;20509;-78
2022/11/20 17:43:06;;;;;;;25.98;14.00;;;2.10;99.90;;;;;;6188049;23;20057;-80
2022/11/20 17:45:35;;;;;;;25.85;14.43;;;2.10;99.90;;;;;;6185989;23;20339;-81
2022/11/20 17:48:00;;;;;;;25.67;13.77;;;2.10;99.90;;;;;;6188412;23;20382;-81
2022/11/20 17:50:26;;;;;;;27.00;14.77;;;2.00;99.90;;;;;;6188653;23;20017;-81
2022/11/20 17:52:52;;;;;;;27.13;15.07;;;2.00;99.90;;;;;;6186824;23;20342;-80
2022/11/20 17:55:17;;;;;;;27.33;16.05;;;2.00;99.90;;;;;;6188404;23;20017;-80
2022/11/20 17:57:52;;;;;;;28.00;15.70;;;2.00;99.90;;;;;;6186829;23;20049;-81
2022/11/20 18:00:19;;;;;;;31.30;16.58;;;2.00;99.90;;;;;;6186401;23;20013;-80
2022/11/20 18:02:44;;;;;;;26.98;15.07;;;2.10;99.90;;;;;;6186286;23;20407;-81
2022/11/20 18:05:10;;;;;;;27.63;16.42;;;2.00;99.90;;;;;;6186900;23;20009;-82
2022/11/20 18:07:37;;;;;;;28.30;15.32;;;2.00;99.90;;;;;;6186700;23;20091;-80
2022/11/20 18:10:04;;;;;;;28.27;15.82;;;2.00;99.90;;;;;;6186411;23;20016;-81
2022/11/20 18:12:30;;;;;;;33.20;16.92;;;2.00;99.90;;;;;;6160929;23;20017;-81
2022/11/20 18:14:55;;;;;;;27.63;16.55;;;2.00;99.90;;;;;;6185927;23;20024;-79
2022/11/20 18:17:21;;;;;;;29.40;16.20;;;2.00;99.90;;;;;;6185693;23;20455;-81